sensor_id;sensor_type;location;lat;lon;timestamp;P1;durP1;ratioP1;P2;durP2;ratioP2
25137;SDS011;13112;50.986;4.354;2022-07-15T00:00:41;16.52;;;15.23;;
25137;SDS011;13112;50.986;4.354;2022-07-15T00:03:07;17.95;;;16.13;;
25137;SDS011;13112;50.986;4.354;2022-07-15T00:05:33;17.10;;;15.77;;
25137;SDS011;13112;50.986;4.354;2022-07-15T00:07:59;17.20;;;16.00;;
25137;SDS011;13112;50.986;4.354;2022-07-15T00:10:26;17.35;;;15.95;;
25137;SDS011;13112;50.986;4.354;2022-07-15T00:12:53;17.23;;;15.82;;
25137;SDS011;13112;50.986;4.354;2022-07-15T00:15:22;17.55;;;16.08;;
25137;SDS011;13112;50.986;4.354;2022-07-15T00:17:49;17.85;;;15.98;;
25137;SDS011;13112;50.986;4.354;2022-07-15T00:20:16;17.00;;;15.50;;
25137;SDS011;13112;50.986;4.354;2022-07-15T00:22:43;17.73;;;15.88;;
25137;SDS011;13112;50.986;4.354;2022-07-15T00:25:09;17.20;;;16.00;;
25137;SDS011;13112;50.986;4.354;2022-07-15T00:27:38;17.25;;;15.85;;
25137;SDS011;13112;50.986;4.354;2022-07-15T00:30:58;17.27;;;15.93;;
25137;SDS011;13112;50.986;4.354;2022-07-15T00:33:17;17.40;;;15.95;;
25137;SDS011;13112;50.986;4.354;2022-07-15T00:35:43;17.00;;;15.73;;
25137;SDS011;13112;50.986;4.354;2022-07-15T00:38:09;17.05;;;15.70;;
25137;SDS011;13112;50.986;4.354;2022-07-15T00:40:53;17.20;;;15.57;;
25137;SDS011;13112;50.986;4.354;2022-07-15T00:43:19;17.35;;;15.95;;
25137;SDS011;13112;50.986;4.354;2022-07-15T00:45:45;16.92;;;15.27;;
25137;SDS011;13112;50.986;4.354;2022-07-15T00:48:12;18.48;;;16.73;;
25137;SDS011;13112;50.986;4.354;2022-07-15T00:50:38;18.13;;;16.63;;
25137;SDS011;13112;50.986;4.354;2022-07-15T00:53:05;17.20;;;15.77;;
25137;SDS011;13112;50.986;4.354;2022-07-15T00:55:40;17.83;;;16.33;;
25137;SDS011;13112;50.986;4.354;2022-07-15T00:58:07;16.83;;;15.30;;
25137;SDS011;13112;50.986;4.354;2022-07-15T01:00:35;17.48;;;15.85;;
25137;SDS011;13112;50.986;4.354;2022-07-15T01:03:01;17.20;;;15.80;;
25137;SDS011;13112;50.986;4.354;2022-07-15T01:05:27;17.45;;;15.90;;
25137;SDS011;13112;50.986;4.354;2022-07-15T01:07:55;17.35;;;15.88;;
25137;SDS011;13112;50.986;4.354;2022-07-15T01:10:21;17.48;;;15.73;;
25137;SDS011;13112;50.986;4.354;2022-07-15T01:12:49;16.90;;;15.70;;
25137;SDS011;13112;50.986;4.354;2022-07-15T01:15:16;16.67;;;15.48;;
25137;SDS011;13112;50.986;4.354;2022-07-15T01:17:43;17.08;;;15.82;;
25137;SDS011;13112;50.986;4.354;2022-07-15T01:20:10;16.73;;;15.33;;
25137;SDS011;13112;50.986;4.354;2022-07-15T01:22:37;17.88;;;16.02;;
25137;SDS011;13112;50.986;4.354;2022-07-15T01:25:03;17.67;;;16.17;;
25137;SDS011;13112;50.986;4.354;2022-07-15T01:27:29;17.90;;;16.27;;
25137;SDS011;13112;50.986;4.354;2022-07-15T01:29:55;18.50;;;16.50;;
25137;SDS011;13112;50.986;4.354;2022-07-15T01:32:21;17.90;;;16.20;;
25137;SDS011;13112;50.986;4.354;2022-07-15T01:34:46;18.03;;;16.10;;
25137;SDS011;13112;50.986;4.354;2022-07-15T01:37:15;18.07;;;16.50;;
25137;SDS011;13112;50.986;4.354;2022-07-15T01:39:41;17.97;;;16.50;;
25137;SDS011;13112;50.986;4.354;2022-07-15T01:42:07;17.70;;;16.23;;
25137;SDS011;13112;50.986;4.354;2022-07-15T01:44:33;18.13;;;16.50;;
25137;SDS011;13112;50.986;4.354;2022-07-15T01:46:59;17.77;;;16.37;;
25137;SDS011;13112;50.986;4.354;2022-07-15T01:49:25;18.07;;;16.47;;
25137;SDS011;13112;50.986;4.354;2022-07-15T01:51:54;17.30;;;15.90;;
25137;SDS011;13112;50.986;4.354;2022-07-15T01:54:21;17.67;;;15.83;;
25137;SDS011;13112;50.986;4.354;2022-07-15T01:56:48;17.37;;;16.07;;
25137;SDS011;13112;50.986;4.354;2022-07-15T01:59:15;18.07;;;16.23;;
25137;SDS011;13112;50.986;4.354;2022-07-15T02:01:42;17.63;;;16.03;;
25137;SDS011;13112;50.986;4.354;2022-07-15T02:04:08;17.60;;;16.17;;
25137;SDS011;13112;50.986;4.354;2022-07-15T02:06:34;17.23;;;15.87;;
25137;SDS011;13112;50.986;4.354;2022-07-15T02:09:00;18.13;;;16.23;;
25137;SDS011;13112;50.986;4.354;2022-07-15T02:11:25;17.47;;;15.93;;
25137;SDS011;13112;50.986;4.354;2022-07-15T02:13:51;17.77;;;15.97;;
25137;SDS011;13112;50.986;4.354;2022-07-15T02:16:21;17.20;;;15.90;;
25137;SDS011;13112;50.986;4.354;2022-07-15T02:18:46;17.10;;;15.60;;
25137;SDS011;13112;50.986;4.354;2022-07-15T02:21:12;17.93;;;16.07;;
25137;SDS011;13112;50.986;4.354;2022-07-15T02:23:38;17.67;;;16.07;;
25137;SDS011;13112;50.986;4.354;2022-07-15T02:26:03;17.53;;;16.23;;
25137;SDS011;13112;50.986;4.354;2022-07-15T02:28:29;17.67;;;16.20;;
25137;SDS011;13112;50.986;4.354;2022-07-15T02:30:56;17.27;;;16.00;;
25137;SDS011;13112;50.986;4.354;2022-07-15T02:33:22;17.90;;;16.40;;
25137;SDS011;13112;50.986;4.354;2022-07-15T02:35:47;18.30;;;16.53;;
25137;SDS011;13112;50.986;4.354;2022-07-15T02:38:14;17.90;;;16.40;;
25137;SDS011;13112;50.986;4.354;2022-07-15T02:40:40;17.47;;;16.17;;
25137;SDS011;13112;50.986;4.354;2022-07-15T02:43:06;18.07;;;16.60;;
25137;SDS011;13112;50.986;4.354;2022-07-15T02:45:33;21.33;;;17.07;;
25137;SDS011;13112;50.986;4.354;2022-07-15T02:48:00;18.73;;;17.00;;
25137;SDS011;13112;50.986;4.354;2022-07-15T02:50:25;18.00;;;16.47;;
25137;SDS011;13112;50.986;4.354;2022-07-15T02:52:51;18.63;;;16.70;;
25137;SDS011;13112;50.986;4.354;2022-07-15T02:55:17;18.40;;;16.90;;
25137;SDS011;13112;50.986;4.354;2022-07-15T02:57:42;18.03;;;16.43;;
25137;SDS011;13112;50.986;4.354;2022-07-15T03:00:09;19.00;;;17.20;;
25137;SDS011;13112;50.986;4.354;2022-07-15T03:02:37;19.53;;;17.47;;
25137;SDS011;13112;50.986;4.354;2022-07-15T03:05:04;18.33;;;16.67;;
25137;SDS011;13112;50.986;4.354;2022-07-15T03:07:30;18.20;;;16.67;;
25137;SDS011;13112;50.986;4.354;2022-07-15T03:09:56;18.60;;;16.97;;
25137;SDS011;13112;50.986;4.354;2022-07-15T03:12:22;18.80;;;17.10;;
25137;SDS011;13112;50.986;4.354;2022-07-15T03:14:48;17.63;;;16.13;;
25137;SDS011;13112;50.986;4.354;2022-07-15T03:17:14;17.70;;;16.17;;
25137;SDS011;13112;50.986;4.354;2022-07-15T03:19:39;17.67;;;15.97;;
25137;SDS011;13112;50.986;4.354;2022-07-15T03:22:05;18.47;;;16.83;;
25137;SDS011;13112;50.986;4.354;2022-07-15T03:24:31;18.27;;;16.47;;
25137;SDS011;13112;50.986;4.354;2022-07-15T03:26:57;18.80;;;17.03;;
25137;SDS011;13112;50.986;4.354;2022-07-15T03:29:23;17.73;;;16.30;;
25137;SDS011;13112;50.986;4.354;2022-07-15T03:31:49;17.13;;;15.77;;
25137;SDS011;13112;50.986;4.354;2022-07-15T03:34:15;17.23;;;15.83;;
25137;SDS011;13112;50.986;4.354;2022-07-15T03:36:42;17.33;;;15.73;;
25137;SDS011;13112;50.986;4.354;2022-07-15T03:39:08;16.87;;;15.47;;
25137;SDS011;13112;50.986;4.354;2022-07-15T03:41:34;18.17;;;16.60;;
25137;SDS011;13112;50.986;4.354;2022-07-15T03:44:03;17.97;;;16.27;;
25137;SDS011;13112;50.986;4.354;2022-07-15T03:46:29;17.70;;;16.13;;
25137;SDS011;13112;50.986;4.354;2022-07-15T03:48:55;17.23;;;15.73;;
25137;SDS011;13112;50.986;4.354;2022-07-15T03:51:21;16.83;;;15.53;;
25137;SDS011;13112;50.986;4.354;2022-07-15T03:53:49;17.23;;;15.90;;
25137;SDS011;13112;50.986;4.354;2022-07-15T03:56:15;18.30;;;16.73;;
25137;SDS011;13112;50.986;4.354;2022-07-15T03:58:41;18.03;;;16.43;;
25137;SDS011;13112;50.986;4.354;2022-07-15T04:01:09;17.03;;;15.53;;
25137;SDS011;13112;50.986;4.354;2022-07-15T04:03:35;17.00;;;15.30;;
25137;SDS011;13112;50.986;4.354;2022-07-15T04:06:01;16.30;;;15.00;;
25137;SDS011;13112;50.986;4.354;2022-07-15T04:08:26;16.07;;;14.77;;
25137;SDS011;13112;50.986;4.354;2022-07-15T04:10:52;16.57;;;15.20;;
25137;SDS011;13112;50.986;4.354;2022-07-15T04:13:18;16.50;;;14.90;;
25137;SDS011;13112;50.986;4.354;2022-07-15T04:15:44;16.37;;;14.83;;
25137;SDS011;13112;50.986;4.354;2022-07-15T04:18:11;17.33;;;15.83;;
25137;SDS011;13112;50.986;4.354;2022-07-15T04:20:37;15.80;;;14.60;;
25137;SDS011;13112;50.986;4.354;2022-07-15T04:23:02;16.80;;;15.20;;
25137;SDS011;13112;50.986;4.354;2022-07-15T04:25:28;16.50;;;15.00;;
25137;SDS011;13112;50.986;4.354;2022-07-15T04:27:54;18.47;;;16.43;;
25137;SDS011;13112;50.986;4.354;2022-07-15T04:30:19;23.97;;;15.70;;
25137;SDS011;13112;50.986;4.354;2022-07-15T04:32:45;17.37;;;15.47;;
25137;SDS011;13112;50.986;4.354;2022-07-15T04:35:11;17.93;;;15.27;;
25137;SDS011;13112;50.986;4.354;2022-07-15T04:37:36;16.83;;;15.23;;
25137;SDS011;13112;50.986;4.354;2022-07-15T04:40:03;15.47;;;14.30;;
25137;SDS011;13112;50.986;4.354;2022-07-15T04:42:32;17.43;;;14.70;;
25137;SDS011;13112;50.986;4.354;2022-07-15T04:44:57;15.57;;;14.33;;
25137;SDS011;13112;50.986;4.354;2022-07-15T04:47:23;17.30;;;15.50;;
25137;SDS011;13112;50.986;4.354;2022-07-15T04:49:49;16.90;;;15.47;;
25137;SDS011;13112;50.986;4.354;2022-07-15T04:52:33;17.30;;;15.50;;
25137;SDS011;13112;50.986;4.354;2022-07-15T04:54:58;16.00;;;14.30;;
25137;SDS011;13112;50.986;4.354;2022-07-15T04:57:24;15.73;;;14.40;;
25137;SDS011;13112;50.986;4.354;2022-07-15T04:59:50;15.70;;;14.13;;
25137;SDS011;13112;50.986;4.354;2022-07-15T05:02:15;14.90;;;13.55;;
25137;SDS011;13112;50.986;4.354;2022-07-15T05:04:41;15.52;;;14.13;;
25137;SDS011;13112;50.986;4.354;2022-07-15T05:07:07;16.15;;;14.65;;
25137;SDS011;13112;50.986;4.354;2022-07-15T05:09:33;15.57;;;14.02;;
25137;SDS011;13112;50.986;4.354;2022-07-15T05:11:59;16.67;;;15.05;;
25137;SDS011;13112;50.986;4.354;2022-07-15T05:14:25;16.15;;;14.75;;
25137;SDS011;13112;50.986;4.354;2022-07-15T05:16:50;16.48;;;14.90;;
25137;SDS011;13112;50.986;4.354;2022-07-15T05:19:16;15.70;;;14.48;;
25137;SDS011;13112;50.986;4.354;2022-07-15T05:21:42;15.98;;;14.57;;
25137;SDS011;13112;50.986;4.354;2022-07-15T05:24:08;15.85;;;14.55;;
25137;SDS011;13112;50.986;4.354;2022-07-15T05:26:34;16.00;;;14.82;;
25137;SDS011;13112;50.986;4.354;2022-07-15T05:28:59;16.23;;;14.93;;
25137;SDS011;13112;50.986;4.354;2022-07-15T05:31:26;17.98;;;15.48;;
25137;SDS011;13112;50.986;4.354;2022-07-15T05:33:52;17.90;;;15.38;;
25137;SDS011;13112;50.986;4.354;2022-07-15T05:36:18;19.73;;;15.52;;
25137;SDS011;13112;50.986;4.354;2022-07-15T05:38:44;17.70;;;15.70;;
25137;SDS011;13112;50.986;4.354;2022-07-15T05:41:10;16.52;;;15.23;;
25137;SDS011;13112;50.986;4.354;2022-07-15T05:43:36;17.52;;;15.98;;
25137;SDS011;13112;50.986;4.354;2022-07-15T05:46:02;17.25;;;15.65;;
25137;SDS011;13112;50.986;4.354;2022-07-15T05:48:29;17.30;;;15.80;;
25137;SDS011;13112;50.986;4.354;2022-07-15T05:50:54;20.80;;;15.77;;
25137;SDS011;13112;50.986;4.354;2022-07-15T05:53:20;18.02;;;16.10;;
25137;SDS011;13112;50.986;4.354;2022-07-15T05:55:47;16.95;;;15.20;;
25137;SDS011;13112;50.986;4.354;2022-07-15T05:58:13;17.00;;;15.00;;
25137;SDS011;13112;50.986;4.354;2022-07-15T06:00:38;16.88;;;15.10;;
25137;SDS011;13112;50.986;4.354;2022-07-15T06:03:04;16.58;;;15.18;;
25137;SDS011;13112;50.986;4.354;2022-07-15T06:05:30;16.55;;;15.15;;
25137;SDS011;13112;50.986;4.354;2022-07-15T06:07:56;15.60;;;13.98;;
25137;SDS011;13112;50.986;4.354;2022-07-15T06:10:22;15.48;;;13.98;;
25137;SDS011;13112;50.986;4.354;2022-07-15T06:12:48;14.52;;;13.27;;
25137;SDS011;13112;50.986;4.354;2022-07-15T06:15:14;14.30;;;12.90;;
25137;SDS011;13112;50.986;4.354;2022-07-15T06:17:39;14.88;;;13.40;;
25137;SDS011;13112;50.986;4.354;2022-07-15T06:20:06;13.20;;;12.25;;
25137;SDS011;13112;50.986;4.354;2022-07-15T06:22:32;13.25;;;12.20;;
25137;SDS011;13112;50.986;4.354;2022-07-15T06:24:58;13.77;;;12.43;;
25137;SDS011;13112;50.986;4.354;2022-07-15T06:27:24;16.58;;;13.00;;
25137;SDS011;13112;50.986;4.354;2022-07-15T06:29:50;13.77;;;12.38;;
25137;SDS011;13112;50.986;4.354;2022-07-15T06:32:17;13.50;;;12.35;;
25137;SDS011;13112;50.986;4.354;2022-07-15T06:34:43;13.02;;;12.02;;
25137;SDS011;13112;50.986;4.354;2022-07-15T06:37:09;13.45;;;12.15;;
25137;SDS011;13112;50.986;4.354;2022-07-15T06:39:35;12.82;;;11.80;;
25137;SDS011;13112;50.986;4.354;2022-07-15T06:42:01;12.80;;;11.68;;
25137;SDS011;13112;50.986;4.354;2022-07-15T06:44:27;13.20;;;12.27;;
25137;SDS011;13112;50.986;4.354;2022-07-15T06:46:53;13.98;;;12.55;;
25137;SDS011;13112;50.986;4.354;2022-07-15T06:49:20;13.60;;;12.48;;
25137;SDS011;13112;50.986;4.354;2022-07-15T06:51:46;13.18;;;11.80;;
25137;SDS011;13112;50.986;4.354;2022-07-15T06:54:12;13.07;;;11.80;;
25137;SDS011;13112;50.986;4.354;2022-07-15T06:56:38;13.20;;;12.15;;
25137;SDS011;13112;50.986;4.354;2022-07-15T06:59:04;12.65;;;11.48;;
25137;SDS011;13112;50.986;4.354;2022-07-15T07:01:29;13.15;;;12.10;;
25137;SDS011;13112;50.986;4.354;2022-07-15T07:03:55;13.30;;;12.13;;
25137;SDS011;13112;50.986;4.354;2022-07-15T07:06:21;12.73;;;11.57;;
25137;SDS011;13112;50.986;4.354;2022-07-15T07:08:47;12.73;;;11.73;;
25137;SDS011;13112;50.986;4.354;2022-07-15T07:11:16;13.05;;;11.82;;
25137;SDS011;13112;50.986;4.354;2022-07-15T07:13:42;13.07;;;11.80;;
25137;SDS011;13112;50.986;4.354;2022-07-15T07:16:08;13.00;;;11.98;;
25137;SDS011;13112;50.986;4.354;2022-07-15T07:18:34;13.48;;;12.02;;
25137;SDS011;13112;50.986;4.354;2022-07-15T07:21:00;13.60;;;12.25;;
25137;SDS011;13112;50.986;4.354;2022-07-15T07:23:26;13.00;;;12.00;;
25137;SDS011;13112;50.986;4.354;2022-07-15T07:25:53;13.60;;;12.40;;
25137;SDS011;13112;50.986;4.354;2022-07-15T07:28:19;12.50;;;11.43;;
25137;SDS011;13112;50.986;4.354;2022-07-15T07:30:45;12.60;;;11.32;;
25137;SDS011;13112;50.986;4.354;2022-07-15T07:33:11;12.40;;;11.30;;
25137;SDS011;13112;50.986;4.354;2022-07-15T07:35:37;13.25;;;11.90;;
25137;SDS011;13112;50.986;4.354;2022-07-15T07:38:03;13.23;;;12.07;;
25137;SDS011;13112;50.986;4.354;2022-07-15T07:40:29;12.77;;;11.60;;
25137;SDS011;13112;50.986;4.354;2022-07-15T07:42:55;13.23;;;11.93;;
25137;SDS011;13112;50.986;4.354;2022-07-15T07:45:22;12.45;;;11.27;;
25137;SDS011;13112;50.986;4.354;2022-07-15T07:47:48;13.23;;;12.02;;
25137;SDS011;13112;50.986;4.354;2022-07-15T07:50:14;13.10;;;12.00;;
25137;SDS011;13112;50.986;4.354;2022-07-15T07:52:40;12.70;;;11.77;;
25137;SDS011;13112;50.986;4.354;2022-07-15T07:55:07;12.98;;;11.85;;
25137;SDS011;13112;50.986;4.354;2022-07-15T07:57:33;13.48;;;12.30;;
25137;SDS011;13112;50.986;4.354;2022-07-15T07:59:59;13.18;;;12.25;;
25137;SDS011;13112;50.986;4.354;2022-07-15T08:02:25;13.35;;;12.35;;
25137;SDS011;13112;50.986;4.354;2022-07-15T08:04:51;13.48;;;12.13;;
25137;SDS011;13112;50.986;4.354;2022-07-15T08:07:17;12.90;;;11.77;;
25137;SDS011;13112;50.986;4.354;2022-07-15T08:09:42;12.75;;;11.85;;
25137;SDS011;13112;50.986;4.354;2022-07-15T08:12:08;12.85;;;11.75;;
25137;SDS011;13112;50.986;4.354;2022-07-15T08:14:34;13.67;;;12.60;;
25137;SDS011;13112;50.986;4.354;2022-07-15T08:17:00;13.60;;;12.38;;
25137;SDS011;13112;50.986;4.354;2022-07-15T08:19:25;12.82;;;11.93;;
25137;SDS011;13112;50.986;4.354;2022-07-15T08:21:51;13.55;;;12.43;;
25137;SDS011;13112;50.986;4.354;2022-07-15T08:24:17;12.88;;;11.80;;
25137;SDS011;13112;50.986;4.354;2022-07-15T08:26:43;12.63;;;11.70;;
25137;SDS011;13112;50.986;4.354;2022-07-15T08:29:08;12.60;;;11.80;;
25137;SDS011;13112;50.986;4.354;2022-07-15T08:31:34;12.95;;;11.88;;
25137;SDS011;13112;50.986;4.354;2022-07-15T08:34:01;12.73;;;11.63;;
25137;SDS011;13112;50.986;4.354;2022-07-15T08:36:28;12.60;;;11.43;;
25137;SDS011;13112;50.986;4.354;2022-07-15T08:38:54;15.35;;;12.65;;
25137;SDS011;13112;50.986;4.354;2022-07-15T08:41:21;12.85;;;11.70;;
25137;SDS011;13112;50.986;4.354;2022-07-15T08:43:46;12.85;;;11.90;;
25137;SDS011;13112;50.986;4.354;2022-07-15T08:46:13;13.57;;;12.25;;
25137;SDS011;13112;50.986;4.354;2022-07-15T08:48:40;13.77;;;12.45;;
25137;SDS011;13112;50.986;4.354;2022-07-15T08:51:11;12.65;;;11.55;;
25137;SDS011;13112;50.986;4.354;2022-07-15T08:53:38;12.85;;;11.95;;
25137;SDS011;13112;50.986;4.354;2022-07-15T08:56:04;15.05;;;12.45;;
25137;SDS011;13112;50.986;4.354;2022-07-15T08:58:30;13.45;;;12.45;;
25137;SDS011;13112;50.986;4.354;2022-07-15T09:01:00;13.70;;;12.63;;
25137;SDS011;13112;50.986;4.354;2022-07-15T09:03:26;12.50;;;11.57;;
25137;SDS011;13112;50.986;4.354;2022-07-15T09:05:52;13.00;;;11.93;;
25137;SDS011;13112;50.986;4.354;2022-07-15T09:08:17;12.73;;;11.82;;
25137;SDS011;13112;50.986;4.354;2022-07-15T09:13:36;13.07;;;12.00;;
25137;SDS011;13112;50.986;4.354;2022-07-15T09:18:41;13.32;;;12.23;;
25137;SDS011;13112;50.986;4.354;2022-07-15T09:21:19;12.20;;;11.27;;
25137;SDS011;13112;50.986;4.354;2022-07-15T09:23:51;12.77;;;11.80;;
25137;SDS011;13112;50.986;4.354;2022-07-15T09:29:01;13.20;;;12.10;;
25137;SDS011;13112;50.986;4.354;2022-07-15T09:31:48;12.50;;;11.60;;
25137;SDS011;13112;50.986;4.354;2022-07-15T09:34:58;11.88;;;10.93;;
25137;SDS011;13112;50.986;4.354;2022-07-15T09:37:29;12.70;;;11.80;;
25137;SDS011;13112;50.986;4.354;2022-07-15T09:39:55;12.50;;;11.63;;
25137;SDS011;13112;50.986;4.354;2022-07-15T09:42:22;12.65;;;11.50;;
25137;SDS011;13112;50.986;4.354;2022-07-15T09:44:48;12.05;;;11.32;;
25137;SDS011;13112;50.986;4.354;2022-07-15T09:47:19;12.05;;;11.25;;
25137;SDS011;13112;50.986;4.354;2022-07-15T09:49:47;12.60;;;11.80;;
25137;SDS011;13112;50.986;4.354;2022-07-15T09:52:13;12.05;;;11.07;;
25137;SDS011;13112;50.986;4.354;2022-07-15T09:57:07;12.30;;;11.40;;
25137;SDS011;13112;50.986;4.354;2022-07-15T09:59:34;12.75;;;11.95;;
25137;SDS011;13112;50.986;4.354;2022-07-15T10:02:00;12.75;;;11.60;;
25137;SDS011;13112;50.986;4.354;2022-07-15T10:04:27;11.25;;;10.55;;
25137;SDS011;13112;50.986;4.354;2022-07-15T10:06:54;11.65;;;10.82;;
25137;SDS011;13112;50.986;4.354;2022-07-15T10:09:21;12.30;;;11.60;;
25137;SDS011;13112;50.986;4.354;2022-07-15T10:11:49;11.70;;;10.80;;
25137;SDS011;13112;50.986;4.354;2022-07-15T10:30:12;12.38;;;11.68;;
25137;SDS011;13112;50.986;4.354;2022-07-15T10:35:34;12.65;;;11.63;;
25137;SDS011;13112;50.986;4.354;2022-07-15T10:38:19;12.50;;;11.57;;
25137;SDS011;13112;50.986;4.354;2022-07-15T10:41:24;12.43;;;11.50;;
25137;SDS011;13112;50.986;4.354;2022-07-15T10:43:53;11.63;;;10.93;;
25137;SDS011;13112;50.986;4.354;2022-07-15T10:46:20;13.07;;;12.02;;
25137;SDS011;13112;50.986;4.354;2022-07-15T10:48:49;11.98;;;10.98;;
25137;SDS011;13112;50.986;4.354;2022-07-15T10:51:58;11.48;;;10.65;;
25137;SDS011;13112;50.986;4.354;2022-07-15T10:54:07;12.38;;;11.50;;
25137;SDS011;13112;50.986;4.354;2022-07-15T10:59:11;11.45;;;10.82;;
25137;SDS011;13112;50.986;4.354;2022-07-15T11:01:39;11.73;;;11.07;;
25137;SDS011;13112;50.986;4.354;2022-07-15T11:04:16;11.73;;;10.82;;
25137;SDS011;13112;50.986;4.354;2022-07-15T11:09:46;11.75;;;10.95;;
25137;SDS011;13112;50.986;4.354;2022-07-15T11:19:57;12.35;;;11.57;;
25137;SDS011;13112;50.986;4.354;2022-07-15T11:22:26;12.02;;;11.32;;
25137;SDS011;13112;50.986;4.354;2022-07-15T11:24:53;13.80;;;12.75;;
25137;SDS011;13112;50.986;4.354;2022-07-15T11:27:20;12.48;;;11.77;;
25137;SDS011;13112;50.986;4.354;2022-07-15T11:29:52;12.60;;;11.68;;
25137;SDS011;13112;50.986;4.354;2022-07-15T11:32:21;12.10;;;11.20;;
25137;SDS011;13112;50.986;4.354;2022-07-15T11:34:49;12.07;;;11.38;;
25137;SDS011;13112;50.986;4.354;2022-07-15T11:40:03;12.18;;;11.30;;
25137;SDS011;13112;50.986;4.354;2022-07-15T11:42:32;12.63;;;11.73;;
25137;SDS011;13112;50.986;4.354;2022-07-15T11:45:30;12.40;;;11.43;;
25137;SDS011;13112;50.986;4.354;2022-07-15T11:48:00;12.18;;;11.38;;
25137;SDS011;13112;50.986;4.354;2022-07-15T11:50:26;13.50;;;12.50;;
25137;SDS011;13112;50.986;4.354;2022-07-15T11:52:56;14.25;;;13.35;;
25137;SDS011;13112;50.986;4.354;2022-07-15T11:55:24;13.45;;;12.48;;
25137;SDS011;13112;50.986;4.354;2022-07-15T11:57:49;12.80;;;12.02;;
25137;SDS011;13112;50.986;4.354;2022-07-15T12:00:17;12.68;;;11.88;;
25137;SDS011;13112;50.986;4.354;2022-07-15T12:02:44;11.90;;;11.10;;
25137;SDS011;13112;50.986;4.354;2022-07-15T12:05:10;12.30;;;11.20;;
25137;SDS011;13112;50.986;4.354;2022-07-15T12:07:44;11.65;;;10.75;;
25137;SDS011;13112;50.986;4.354;2022-07-15T12:10:12;11.60;;;10.70;;
25137;SDS011;13112;50.986;4.354;2022-07-15T12:12:57;11.15;;;10.55;;
25137;SDS011;13112;50.986;4.354;2022-07-15T12:15:23;12.90;;;11.60;;
25137;SDS011;13112;50.986;4.354;2022-07-15T12:17:49;11.52;;;10.63;;
25137;SDS011;13112;50.986;4.354;2022-07-15T12:20:15;12.38;;;11.52;;
25137;SDS011;13112;50.986;4.354;2022-07-15T12:25:30;12.30;;;11.40;;
25137;SDS011;13112;50.986;4.354;2022-07-15T12:27:56;12.40;;;11.60;;
25137;SDS011;13112;50.986;4.354;2022-07-15T12:30:29;12.13;;;11.43;;
25137;SDS011;13112;50.986;4.354;2022-07-15T12:33:19;13.45;;;11.20;;
25137;SDS011;13112;50.986;4.354;2022-07-15T12:35:47;11.07;;;10.32;;
25137;SDS011;13112;50.986;4.354;2022-07-15T12:38:26;12.13;;;11.23;;
25137;SDS011;13112;50.986;4.354;2022-07-15T12:40:53;12.35;;;11.50;;
25137;SDS011;13112;50.986;4.354;2022-07-15T12:46:47;12.43;;;11.50;;
25137;SDS011;13112;50.986;4.354;2022-07-15T12:54:56;13.00;;;12.10;;
25137;SDS011;13112;50.986;4.354;2022-07-15T12:57:33;12.52;;;11.63;;
25137;SDS011;13112;50.986;4.354;2022-07-15T13:00:05;12.10;;;11.40;;
25137;SDS011;13112;50.986;4.354;2022-07-15T13:05:19;11.93;;;11.18;;
25137;SDS011;13112;50.986;4.354;2022-07-15T13:07:46;12.60;;;11.65;;
25137;SDS011;13112;50.986;4.354;2022-07-15T13:10:11;12.27;;;11.48;;
25137;SDS011;13112;50.986;4.354;2022-07-15T13:12:38;12.18;;;11.27;;
25137;SDS011;13112;50.986;4.354;2022-07-15T13:15:04;12.27;;;11.48;;
25137;SDS011;13112;50.986;4.354;2022-07-15T13:17:30;12.50;;;11.63;;
25137;SDS011;13112;50.986;4.354;2022-07-15T13:19:56;12.45;;;11.45;;
25137;SDS011;13112;50.986;4.354;2022-07-15T13:22:21;12.82;;;11.93;;
25137;SDS011;13112;50.986;4.354;2022-07-15T13:24:47;12.07;;;11.30;;
25137;SDS011;13112;50.986;4.354;2022-07-15T13:27:13;12.55;;;11.85;;
25137;SDS011;13112;50.986;4.354;2022-07-15T13:29:39;12.63;;;11.75;;
25137;SDS011;13112;50.986;4.354;2022-07-15T13:32:05;12.45;;;11.70;;
25137;SDS011;13112;50.986;4.354;2022-07-15T13:34:31;12.80;;;12.02;;
25137;SDS011;13112;50.986;4.354;2022-07-15T13:36:56;12.57;;;11.88;;
25137;SDS011;13112;50.986;4.354;2022-07-15T13:39:22;13.10;;;12.20;;
25137;SDS011;13112;50.986;4.354;2022-07-15T13:41:48;12.60;;;11.80;;
25137;SDS011;13112;50.986;4.354;2022-07-15T13:44:14;12.32;;;11.55;;
25137;SDS011;13112;50.986;4.354;2022-07-15T13:46:39;13.20;;;12.40;;
25137;SDS011;13112;50.986;4.354;2022-07-15T13:49:05;12.98;;;12.18;;
25137;SDS011;13112;50.986;4.354;2022-07-15T13:51:31;12.68;;;11.98;;
25137;SDS011;13112;50.986;4.354;2022-07-15T13:53:57;12.52;;;11.75;;
25137;SDS011;13112;50.986;4.354;2022-07-15T13:56:23;13.38;;;12.50;;
25137;SDS011;13112;50.986;4.354;2022-07-15T13:58:49;13.90;;;12.70;;
25137;SDS011;13112;50.986;4.354;2022-07-15T14:01:15;13.77;;;12.70;;
25137;SDS011;13112;50.986;4.354;2022-07-15T14:03:41;13.25;;;12.30;;
25137;SDS011;13112;50.986;4.354;2022-07-15T14:06:07;13.20;;;12.40;;
25137;SDS011;13112;50.986;4.354;2022-07-15T14:08:34;13.95;;;12.95;;
25137;SDS011;13112;50.986;4.354;2022-07-15T14:11:00;13.63;;;12.63;;
25137;SDS011;13112;50.986;4.354;2022-07-15T14:13:26;13.40;;;12.50;;
25137;SDS011;13112;50.986;4.354;2022-07-15T14:15:52;14.00;;;13.10;;
25137;SDS011;13112;50.986;4.354;2022-07-15T14:18:17;14.25;;;12.73;;
25137;SDS011;13112;50.986;4.354;2022-07-15T14:20:43;13.18;;;12.20;;
25137;SDS011;13112;50.986;4.354;2022-07-15T14:23:13;13.90;;;12.90;;
25137;SDS011;13112;50.986;4.354;2022-07-15T14:25:39;12.02;;;11.20;;
25137;SDS011;13112;50.986;4.354;2022-07-15T14:28:04;14.13;;;13.23;;
25137;SDS011;13112;50.986;4.354;2022-07-15T14:30:30;13.52;;;12.32;;
25137;SDS011;13112;50.986;4.354;2022-07-15T14:32:56;12.80;;;11.85;;
25137;SDS011;13112;50.986;4.354;2022-07-15T14:35:22;12.40;;;11.60;;
25137;SDS011;13112;50.986;4.354;2022-07-15T14:37:48;12.55;;;11.70;;
25137;SDS011;13112;50.986;4.354;2022-07-15T14:40:14;14.15;;;12.93;;
25137;SDS011;13112;50.986;4.354;2022-07-15T14:42:40;13.40;;;12.27;;
25137;SDS011;13112;50.986;4.354;2022-07-15T14:45:07;12.80;;;11.95;;
25137;SDS011;13112;50.986;4.354;2022-07-15T14:47:33;13.32;;;12.48;;
25137;SDS011;13112;50.986;4.354;2022-07-15T14:49:59;14.07;;;13.25;;
25137;SDS011;13112;50.986;4.354;2022-07-15T14:52:24;14.93;;;12.48;;
25137;SDS011;13112;50.986;4.354;2022-07-15T14:54:50;12.90;;;11.95;;
25137;SDS011;13112;50.986;4.354;2022-07-15T14:57:15;13.73;;;12.63;;
25137;SDS011;13112;50.986;4.354;2022-07-15T14:59:42;15.27;;;14.18;;
25137;SDS011;13112;50.986;4.354;2022-07-15T15:02:08;13.77;;;12.88;;
25137;SDS011;13112;50.986;4.354;2022-07-15T15:04:35;12.82;;;11.82;;
25137;SDS011;13112;50.986;4.354;2022-07-15T15:07:01;13.88;;;12.88;;
25137;SDS011;13112;50.986;4.354;2022-07-15T15:09:27;13.00;;;12.10;;
25137;SDS011;13112;50.986;4.354;2022-07-15T15:11:53;12.82;;;12.02;;
25137;SDS011;13112;50.986;4.354;2022-07-15T15:14:20;13.18;;;12.10;;
25137;SDS011;13112;50.986;4.354;2022-07-15T15:16:46;12.35;;;11.43;;
25137;SDS011;13112;50.986;4.354;2022-07-15T15:19:11;12.60;;;11.70;;
25137;SDS011;13112;50.986;4.354;2022-07-15T15:21:37;12.82;;;11.90;;